.
WxDataArchive / Data Records for 2011-06-27
2011-06-26 June 2011 2011-06-28

Data Records for Monday, 27 June 2011

Time	Temp	Chill	HIndex	Humid	Dewpt	 Wind 	HiWind	WindDir	Rain 	Barom 
-----	----	-----	------	-----	-----	------	------	-------	-----	----- 
00:00	67.3	67.3	67.3	77	59.8	0	0	---	0.00	29.966 
00:05	66.9	66.9	66.9	77	59.4	0	0	---	0.00	29.966 
00:10	66.8	66.8	66.8	77	59.3	0	0	---	0.00	29.966 
00:15	66.6	66.6	66.6	78	59.5	0	0	---	0.00	29.973 
00:20	66.4	66.4	66.4	78	59.3	0	0	---	0.00	29.973 
00:25	66.3	66.3	66.3	79	59.6	0	0	---	0.00	29.973 
00:30	66.1	66.1	66.1	80	59.7	0	0	---	0.00	29.984 
00:35	66.0	66.0	66.0	80	59.6	0	0	---	0.00	29.984 
00:40	65.8	65.8	65.8	81	59.8	0	0	---	0.00	29.984 
00:45	65.6	65.6	65.6	82	59.9	0	0	---	0.00	29.972 
00:50	65.3	65.3	65.3	82	59.7	0	0	---	0.00	29.972 
00:55	65.2	65.2	65.2	82	59.6	0	0	---	0.00	29.972 
01:00	65.0	65.0	65.0	83	59.7	0	0	---	0.00	29.966 
01:05	64.8	64.8	64.8	83	59.5	0	0	---	0.00	29.966 
01:10	64.7	64.7	64.7	83	59.4	0	0	---	0.00	29.966 
01:15	64.5	64.5	64.5	84	59.6	0	0	---	0.00	29.960 
01:20	64.5	64.5	64.5	84	59.6	0	0	---	0.00	29.960 
01:25	64.3	64.3	64.3	84	59.4	0	0	---	0.00	29.960 
01:30	64.3	64.3	64.3	84	59.4	0	0	---	0.00	29.966 
01:35	64.2	64.2	64.2	84	59.3	0	0	---	0.00	29.966 
01:40	64.2	64.2	64.2	84	59.3	0	0	---	0.00	29.966 
01:45	64.0	64.0	64.0	85	59.4	0	0	---	0.00	29.955 
01:50	64.0	64.0	64.0	85	59.4	0	1	112	0.00	29.955 
01:55	64.0	64.0	64.0	85	59.4	0	0	---	0.00	29.955 
02:00	64.0	64.0	64.0	85	59.4	0	0	---	0.00	29.949 
02:05	64.0	64.0	64.0	85	59.4	0	0	---	0.00	29.949 
02:10	64.0	64.0	64.0	85	59.4	0	0	---	0.00	29.949 
02:15	64.0	64.0	64.0	85	59.4	0	0	---	0.00	29.958 
02:20	64.0	64.0	64.0	85	59.4	0	0	---	0.00	29.958 
02:25	64.0	64.0	64.0	85	59.4	0	0	---	0.00	29.958 
02:30	64.0	64.0	64.0	84	59.1	0	0	---	0.00	29.954 
02:35	63.9	63.9	63.9	85	59.3	0	0	---	0.00	29.954 
02:40	63.7	63.7	63.7	85	59.1	0	0	---	0.00	29.954 
02:45	63.5	63.5	63.5	85	58.9	0	0	---	0.00	29.962 
02:50	63.2	63.2	63.2	86	58.9	0	0	---	0.00	29.962 
02:55	63.1	63.1	63.1	86	58.8	0	0	---	0.00	29.962 
03:00	62.9	62.9	62.9	87	59.0	0	0	---	0.00	29.973 
03:05	62.7	62.7	62.7	87	58.8	0	0	---	0.00	29.973 
03:10	62.6	62.6	62.6	87	58.7	0	0	---	0.00	29.973 
03:15	62.4	62.4	62.4	88	58.8	0	0	---	0.00	29.968 
03:20	62.3	62.3	62.3	88	58.7	0	0	---	0.00	29.968 
03:25	62.1	62.1	62.1	88	58.5	0	0	---	0.00	29.968 
03:30	62.1	62.1	62.1	88	58.5	0	0	---	0.00	29.968 
03:35	62.0	62.0	62.0	88	58.4	0	0	---	0.00	29.968 
03:40	61.8	61.8	61.8	89	58.5	0	0	---	0.00	29.968 
03:45	61.6	61.6	61.6	89	58.3	0	0	---	0.00	29.965 
03:50	61.5	61.5	61.5	89	58.2	0	0	---	0.00	29.965 
03:55	61.3	61.3	61.3	89	58.0	0	0	---	0.00	29.965 
04:00	61.3	61.3	61.3	89	58.0	0	0	---	0.00	29.963 
04:05	61.2	61.2	61.2	90	58.2	0	0	---	0.00	29.963 
04:10	61.0	61.0	61.0	90	58.0	0	0	---	0.00	29.963 
04:15	60.9	60.9	60.9	90	57.9	0	0	---	0.00	29.953 
04:20	60.7	60.7	60.7	90	57.7	0	0	---	0.00	29.953 
04:25	60.5	60.5	60.5	90	57.5	0	0	---	0.00	29.953 
04:30	60.5	60.5	60.5	90	57.5	0	0	---	0.00	29.967 
04:35	60.4	60.4	60.4	91	57.8	0	0	---	0.00	29.967 
04:40	60.2	60.2	60.2	91	57.6	0	0	---	0.00	29.967 
04:45	60.1	60.1	60.1	91	57.5	0	0	---	0.00	29.965 
04:50	60.1	60.1	60.1	92	57.8	0	0	---	0.00	29.965 
04:55	59.9	59.9	59.9	92	57.6	0	0	---	0.00	29.965 
05:00	59.9	59.9	59.9	92	57.6	0	0	---	0.00	29.960 
05:05	59.8	59.8	59.8	92	57.5	0	0	---	0.00	29.960 
05:10	59.8	59.8	59.8	92	57.5	0	0	---	0.00	29.960 
05:15	59.6	59.6	59.6	92	57.3	0	0	---	0.00	29.979 
05:20	59.6	59.6	59.6	92	57.3	0	0	---	0.00	29.979 
05:25	59.5	59.5	59.5	92	57.2	0	0	---	0.00	29.979 
05:30	59.5	59.5	59.5	92	57.2	0	0	---	0.00	29.974 
05:35	59.5	59.5	59.5	92	57.2	0	1	112	0.00	29.974 
05:40	59.5	59.5	59.5	93	57.5	0	0	---	0.00	29.974 
05:45	59.5	59.5	59.5	93	57.5	0	0	---	0.00	29.969 
05:50	59.5	59.5	59.5	93	57.5	0	0	---	0.00	29.969 
05:55	59.5	59.5	59.5	93	57.5	0	0	---	0.00	29.969 
06:00	59.6	59.6	59.6	93	57.6	0	0	---	0.00	29.967 
06:05	59.6	59.6	59.6	93	57.6	0	0	---	0.00	29.967 
06:10	59.6	59.6	59.6	93	57.6	0	0	---	0.00	29.967 
06:15	59.9	59.9	59.9	93	57.9	1	2	112	0.00	29.952 
06:20	60.2	60.2	60.2	93	58.2	0	2	112	0.00	29.952 
06:25	60.5	60.5	60.5	92	58.2	1	3	112	0.00	29.952 
06:30	60.7	60.7	60.7	92	58.4	0	1	112	0.00	29.939 
06:35	60.9	60.9	60.9	91	58.3	0	2	112	0.00	29.939 
06:40	61.0	61.0	61.0	90	58.0	1	2	112	0.00	29.939 
06:45	61.2	61.2	61.2	90	58.2	1	3	112	0.00	29.917 
06:50	61.3	61.3	61.3	89	58.0	1	3	112	0.00	29.917 
06:55	61.6	61.6	61.6	88	58.0	0	3	112	0.00	29.917 
07:00	62.0	62.0	62.0	88	58.4	0	2	112	0.00	29.908 
07:05	62.3	62.3	62.3	87	58.4	1	3	112	0.00	29.908 
07:10	62.4	62.4	62.4	87	58.5	0	2	112	0.00	29.908 
07:15	62.7	62.7	62.7	86	58.4	0	2	112	0.00	29.904 
07:20	62.9	62.9	62.9	86	58.6	0	2	112	0.00	29.904 
07:25	63.2	63.2	63.2	85	58.6	1	3	112	0.00	29.904 
07:30	63.5	63.5	63.5	85	58.9	2	5	112	0.00	29.873 
07:35	63.9	63.9	63.9	84	59.0	2	6	112	0.00	29.873 
07:40	64.0	64.0	64.0	84	59.1	1	3	112	0.00	29.873 
07:45	64.3	64.3	64.3	83	59.0	1	5	90	0.00	29.892 
07:50	64.5	64.5	64.5	82	58.9	1	4	68	0.00	29.892 
07:55	64.7	64.7	64.7	81	58.7	1	3	68	0.00	29.892 
08:00	65.0	65.0	65.0	80	58.7	0	4	90	0.00	29.906 
08:05	65.3	65.3	65.3	80	59.0	0	1	90	0.00	29.906 
08:10	65.5	65.5	65.5	78	58.5	0	2	90	0.00	29.906 
08:15	65.6	65.6	65.6	77	58.2	0	3	315	0.00	29.931 
08:20	65.8	65.8	65.8	77	58.4	0	1	225	0.00	29.931 
08:25	66.0	66.0	66.0	76	58.2	0	2	225	0.00	29.931 
08:30	66.3	66.3	66.3	76	58.5	0	1	225	0.00	29.943 
08:35	66.4	66.4	66.4	74	57.9	1	2	225	0.00	29.943 
08:40	66.6	66.6	66.6	73	57.7	1	4	292	0.00	29.943 
08:45	66.9	66.9	66.9	73	58.0	1	4	292	0.00	29.942 
08:50	67.3	67.3	67.3	73	58.3	0	3	112	0.00	29.942 
08:55	67.4	67.4	67.4	72	58.1	1	3	112	0.00	29.942 
09:00	67.8	67.8	67.8	72	58.4	1	3	45	0.00	29.925 
09:05	67.9	67.9	67.9	72	58.5	2	6	90	0.00	29.925 
09:10	68.1	68.1	68.1	72	58.7	0	4	338	0.00	29.925 
09:15	68.6	68.6	68.6	71	58.8	1	5	45	0.00	29.922 
09:20	68.8	68.8	68.8	71	59.0	2	6	90	0.00	29.922 
09:25	68.8	68.8	68.8	71	59.0	2	7	112	0.00	29.922 
09:30	68.6	68.6	68.6	72	59.2	2	11	90	0.00	29.919 
09:35	68.4	68.4	68.4	72	59.0	2	6	90	0.00	29.919 
09:40	68.3	68.3	68.3	73	59.3	2	9	90	0.00	29.919 
09:45	68.4	68.4	68.4	73	59.4	2	6	112	0.00	29.916 
09:50	68.6	68.6	68.6	73	59.6	2	10	112	0.00	29.916 
09:55	68.9	68.9	68.9	72	59.5	2	6	90	0.00	29.916 
10:00	69.1	69.1	69.1	72	59.7	2	6	90	0.00	29.905 
10:05	69.3	69.3	69.3	72	59.9	2	5	90	0.00	29.905 
10:10	69.4	69.4	69.4	72	60.0	2	5	112	0.00	29.905 
10:15	69.4	69.4	69.4	73	60.4	2	5	90	0.00	29.903 
10:20	69.4	69.4	69.4	72	60.0	3	6	90	0.00	29.903 
10:25	69.3	69.3	69.3	74	60.6	3	7	112	0.00	29.903 
10:30	68.9	68.9	68.9	74	60.3	4	12	90	0.00	29.846 
10:35	68.6	68.6	68.6	73	59.6	8	16	90	0.00	29.846 
10:40	68.8	68.8	68.8	74	60.2	4	13	90	0.00	29.846 
10:45	69.1	69.1	69.1	73	60.1	1	5	90	0.00	29.846 
10:50	69.6	69.6	69.6	73	60.6	1	5	270	0.00	29.846 
10:55	70.3	70.3	70.3	71	60.4	1	4	270	0.00	29.846 
11:00	70.9	70.9	70.9	71	61.0	1	4	90	0.00	29.849 
11:05	71.3	71.3	71.3	68	60.2	3	7	68	0.00	29.849 
11:10	71.6	71.6	71.6	69	60.9	1	4	68	0.00	29.849 
11:15	71.8	71.8	71.8	66	59.8	3	10	90	0.00	29.863 
11:20	72.1	72.1	72.1	66	60.1	2	6	90	0.00	29.863 
11:25	72.7	72.7	72.7	67	61.1	1	5	112	0.00	29.863 
11:30	73.0	73.0	73.0	65	60.5	1	3	112	0.00	29.862 
11:35	73.7	73.7	73.7	65	61.2	1	4	45	0.00	29.862 
11:40	74.7	74.7	74.7	64	61.7	1	3	112	0.00	29.862 
11:45	75.3	75.3	77.4	63	61.8	2	10	90	0.00	29.874 
11:50	75.4	75.4	77.5	63	61.9	1	4	90	0.00	29.874 
11:55	75.6	75.6	77.7	61	61.2	2	6	90	0.00	29.874 
12:00	76.0	76.0	78.0	60	61.1	3	6	112	0.00	29.880 
12:05	76.1	76.1	78.0	63	62.6	2	7	90	0.00	29.880 
12:10	76.5	76.5	78.4	61	62.0	1	5	90	0.00	29.880 
12:15	76.5	76.5	78.4	61	62.0	2	6	68	0.00	29.879 
12:20	76.3	76.3	78.2	61	61.8	2	5	112	0.00	29.879 
12:25	76.5	76.5	78.4	62	62.5	2	4	90	0.00	29.879 
12:30	76.8	76.8	78.6	63	63.2	1	5	248	0.00	29.882 
12:35	77.2	77.2	79.0	63	63.6	2	9	90	0.00	29.882 
12:40	77.7	77.7	79.5	64	64.5	1	4	112	0.00	29.882 
12:45	78.5	78.5	80.3	62	64.4	1	3	202	0.00	29.867 
12:50	79.2	79.2	81.0	61	64.6	2	5	68	0.00	29.867 
12:55	79.2	79.2	81.1	62	65.0	1	5	90	0.00	29.867 
13:00	78.6	78.6	80.4	62	64.5	2	6	270	0.00	29.850 
13:05	78.5	78.5	80.4	64	65.3	2	7	270	0.00	29.850 
13:10	78.6	78.6	80.4	63	64.9	2	6	112	0.00	29.850 
13:15	78.3	78.3	80.1	63	64.6	3	6	68	0.00	29.841 
13:20	77.9	77.9	79.7	65	65.2	2	5	90	0.00	29.841 
13:25	78.1	78.1	80.0	65	65.4	1	4	90	0.00	29.841 
13:30	78.3	78.3	80.2	64	65.1	2	7	90	0.00	29.834 
13:35	78.5	78.5	80.3	63	64.8	2	9	90	0.00	29.834 
13:40	77.9	77.9	79.7	65	65.2	3	10	90	0.00	29.834 
13:45	77.6	77.6	79.4	66	65.3	2	5	90	0.00	29.823 
13:50	77.6	77.6	79.5	67	65.8	1	4	315	0.00	29.823 
13:55	78.1	78.1	80.0	65	65.4	1	5	112	0.00	29.823 
14:00	78.8	78.8	80.7	64	65.6	1	4	68	0.00	29.811 
14:05	79.4	79.4	81.4	63	65.7	2	4	68	0.00	29.811 
14:10	79.8	79.8	81.9	63	66.1	1	4	292	0.00	29.811 
14:15	79.8	79.8	81.8	62	65.6	2	7	90	0.00	29.803 
14:20	79.8	79.8	81.7	61	65.1	2	4	248	0.00	29.803 
14:25	80.3	80.3	82.4	62	66.1	1	4	248	0.00	29.803 
14:30	80.9	80.9	82.9	60	65.7	1	5	90	0.00	29.808 
14:35	81.1	81.1	83.2	60	65.9	2	5	248	0.00	29.808 
14:40	80.9	80.9	82.8	59	65.2	1	4	270	0.00	29.808 
14:45	80.7	80.7	82.8	61	66.0	1	4	248	0.00	29.806 
14:50	80.7	80.7	82.7	60	65.5	2	6	90	0.00	29.806 
14:55	80.7	80.7	82.7	60	65.5	1	6	248	0.00	29.806 
15:00	80.7	80.7	82.9	62	66.4	2	5	68	0.00	29.809 
15:05	80.7	80.7	82.5	59	65.0	3	7	90	0.00	29.809 
15:10	80.5	80.5	82.7	62	66.3	2	7	112	0.00	29.809 
15:15	80.7	80.7	83.2	64	67.4	1	3	270	0.00	29.806 
15:20	81.1	81.1	83.5	62	66.8	1	5	0	0.00	29.806 
15:25	81.2	81.2	83.3	60	66.0	2	6	292	0.00	29.806 
15:30	81.1	81.1	83.2	60	65.9	1	4	292	0.00	29.806 
15:35	81.2	81.2	83.5	61	66.4	1	4	248	0.00	29.806 
15:40	81.6	81.6	84.0	61	66.8	0	2	248	0.00	29.806 
15:45	82.0	82.0	84.2	59	66.2	2	5	112	0.00	29.802 
15:50	82.0	82.0	84.2	59	66.2	1	5	112	0.00	29.802 
15:55	81.6	81.6	83.9	60	66.3	1	2	338	0.00	29.802 
16:00	81.2	81.2	83.6	62	66.9	2	4	315	0.00	29.819 
16:05	81.4	81.4	83.8	61	66.6	2	6	270	0.00	29.819 
16:10	82.0	82.0	84.2	59	66.2	1	4	270	0.00	29.819 
16:15	82.4	82.4	85.0	60	67.1	1	4	270	0.00	29.811 
16:20	82.8	82.8	85.4	59	67.0	1	4	270	0.00	29.811 
16:25	83.0	83.0	85.7	59	67.2	1	5	270	0.00	29.811 
16:30	83.2	83.2	85.8	58	66.9	2	4	270	0.00	29.817 
16:35	83.2	83.2	85.8	58	66.9	2	3	270	0.00	29.817 
16:40	83.2	83.2	85.3	56	65.8	1	4	248	0.00	29.817 
16:45	83.0	83.0	85.1	56	65.7	3	6	270	0.00	29.817 
16:50	83.0	83.0	85.5	58	66.7	1	5	248	0.00	29.817 
16:55	83.2	83.2	85.8	58	66.9	1	5	270	0.00	29.817 
17:00	83.6	83.6	86.6	59	67.7	1	3	292	0.00	29.813 
17:05	84.0	84.0	86.3	55	66.1	1	5	248	0.00	29.813 
17:10	83.8	83.8	86.2	56	66.4	2	5	270	0.00	29.813 
17:15	83.6	83.6	86.1	57	66.7	1	4	270	0.00	29.809 
17:20	84.0	84.0	86.7	57	67.1	1	3	270	0.00	29.809 
17:25	83.8	83.8	86.2	56	66.4	2	6	270	0.00	29.809 
17:30	83.0	83.0	85.3	57	66.2	2	5	270	0.00	29.811 
17:35	82.4	82.4	84.8	59	66.6	1	4	270	0.00	29.811 
17:40	82.6	82.6	85.3	60	67.3	1	5	270	0.00	29.811 
17:45	82.8	82.8	85.0	57	66.0	2	6	270	0.00	29.801 
17:50	82.8	82.8	84.8	56	65.5	2	6	270	0.00	29.801 
17:55	82.8	82.8	84.6	55	65.0	2	4	292	0.00	29.801 
18:00	82.6	82.6	84.5	56	65.3	1	3	270	0.00	29.808 
18:05	82.6	82.6	84.3	55	64.8	2	5	270	0.00	29.808 
18:10	82.4	82.4	84.1	55	64.6	2	5	292	0.00	29.808 
18:15	82.2	82.2	84.0	56	64.9	1	4	292	0.00	29.798 
18:20	82.0	82.0	83.6	55	64.2	2	6	270	0.00	29.798 
18:25	81.8	81.8	83.5	56	64.5	1	5	248	0.00	29.798 
18:30	81.8	81.8	83.5	56	64.5	2	7	270	0.00	29.797 
18:35	81.8	81.8	83.5	56	64.5	2	7	270	0.00	29.797 
18:40	81.8	81.8	83.6	57	65.0	1	4	270	0.00	29.797 
18:45	81.8	81.8	83.6	57	65.0	1	4	270	0.00	29.793 
18:50	81.8	81.8	83.8	58	65.6	2	5	292	0.00	29.793 
18:55	81.8	81.8	83.6	57	65.0	2	5	270	0.00	29.793 
19:00	81.6	81.6	83.5	58	65.4	1	5	270	0.00	29.795 
19:05	81.6	81.6	83.7	59	65.9	1	3	270	0.00	29.795 
19:10	81.8	81.8	83.8	58	65.6	3	6	270	0.00	29.795 
19:15	81.8	81.8	83.8	58	65.6	2	4	315	0.00	29.794 
19:20	82.0	82.0	84.2	59	66.2	1	3	315	0.00	29.794 
19:25	82.0	82.0	84.1	58	65.7	1	5	315	0.00	29.794 
19:30	82.0	82.0	84.2	59	66.2	1	2	270	0.00	29.792 
19:35	82.0	82.0	84.2	59	66.2	0	2	270	0.00	29.792 
19:40	82.0	82.0	84.4	60	66.7	1	3	270	0.00	29.792 
19:45	82.0	82.0	84.2	59	66.2	2	5	270	0.00	29.795 
19:50	81.8	81.8	83.8	58	65.6	3	6	270	0.00	29.795 
19:55	81.6	81.6	83.7	59	65.9	3	5	270	0.00	29.795 
20:00	81.4	81.4	83.3	58	65.2	2	6	270	0.00	29.793 
20:05	81.2	81.2	83.3	60	66.0	1	6	270	0.00	29.793 
20:10	81.1	81.1	83.0	59	65.4	2	4	270	0.00	29.793 
20:15	80.9	80.9	82.9	60	65.7	1	4	270	0.00	29.792 
20:20	80.7	80.7	82.8	61	66.0	1	5	270	0.00	29.792 
20:25	80.7	80.7	82.8	61	66.0	1	3	270	0.00	29.792 
20:30	80.5	80.5	82.7	62	66.3	0	2	270	0.00	29.795 
20:35	80.5	80.5	82.7	62	66.3	1	3	270	0.00	29.795 
20:40	80.3	80.3	82.4	62	66.1	1	3	270	0.00	29.795 
20:45	80.1	80.1	82.2	62	65.9	1	3	270	0.00	29.803 
20:50	79.9	79.9	81.9	62	65.7	1	5	270	0.00	29.803 
20:55	79.9	79.9	81.9	62	65.7	1	3	270	0.00	29.803 
21:00	79.8	79.8	81.8	62	65.6	1	3	270	0.00	29.806 
21:05	79.8	79.8	81.8	62	65.6	1	2	270	0.00	29.806 
21:10	79.8	79.8	81.9	63	66.1	0	1	270	0.00	29.806 
21:15	79.6	79.6	81.6	63	65.9	0	1	270	0.00	29.807 
21:20	79.4	79.4	81.5	64	66.1	0	2	270	0.00	29.807 
21:25	79.2	79.2	81.3	65	66.4	0	3	270	0.00	29.807 
21:30	79.2	79.2	81.3	65	66.4	0	1	270	0.00	29.811 
21:35	78.8	78.8	80.9	66	66.5	0	0	---	0.00	29.811 
21:40	78.6	78.6	80.6	66	66.3	0	3	270	0.00	29.811 
21:45	78.5	78.5	80.5	67	66.6	0	2	270	0.00	29.810 
21:50	78.3	78.3	80.3	67	66.4	0	2	270	0.00	29.810 
21:55	78.3	78.3	80.3	67	66.4	0	2	270	0.00	29.810 
22:00	78.1	78.1	80.1	68	66.7	0	1	270	0.00	29.816 
22:05	78.1	78.1	80.1	68	66.7	0	1	270	0.00	29.816 
22:10	77.9	77.9	79.8	68	66.5	0	0	---	0.00	29.816 
22:15	77.7	77.7	79.6	69	66.7	0	0	---	0.00	29.822 
22:20	77.4	77.4	79.2	69	66.4	0	0	---	0.00	29.822 
22:25	77.2	77.2	79.0	70	66.6	0	1	270	0.00	29.822 
22:30	77.0	77.0	78.8	70	66.4	0	0	---	0.00	29.823 
22:35	76.7	76.7	78.4	71	66.6	0	1	270	0.00	29.823 
22:40	76.5	76.5	78.1	72	66.8	0	1	270	0.00	29.823 
22:45	76.5	76.5	78.1	72	66.8	0	1	270	0.00	29.828 
22:50	76.3	76.3	77.9	72	66.6	0	1	270	0.00	29.828 
22:55	76.3	76.3	77.8	73	67.0	0	0	---	0.00	29.828 
23:00	76.1	76.1	77.6	73	66.8	0	0	---	0.00	29.832 
23:05	76.1	76.1	77.6	73	66.8	0	2	270	0.00	29.832 
23:10	76.1	76.1	77.6	73	66.8	0	2	270	0.00	29.832 
23:15	76.1	76.1	77.6	73	66.8	0	1	270	0.00	29.828 
23:20	76.1	76.1	77.5	74	67.2	0	2	270	0.00	29.828 
23:25	76.0	76.0	77.4	74	67.1	0	2	270	0.00	29.828 
23:30	75.8	75.8	77.2	74	66.9	0	2	270	0.00	29.829 
23:35	75.8	75.8	77.2	74	66.9	0	2	270	0.00	29.829 
23:40	75.8	75.8	77.2	74	66.9	0	3	270	0.00	29.829 
23:45	75.6	75.6	77.0	74	66.7	0	1	270	0.00	29.827 
23:50	75.4	75.4	76.7	74	66.5	0	3	270	0.00	29.827 
23:55	75.3	75.3	76.6	74	66.4	0	1	270	0.00	29.827 

CoCoRaHS
IN-AL-39
A2 Web Hosting
Creative Commons License
GoDaddy
search engine by freefind advanced

loaded 2018-11-20 02:35:10 • last modified 2010-11-18 10:43:29
Privacy PolicyDisclaimer
• wx.awcolley.com is powered by PmWiki v.2002016 •
• all content (unless otherwise noted) © 2018 A W Colley